createdAt,value
2023-05-06T00:01:40.176Z,11.54
2023-05-06T00:04:43.385Z,11.47
2023-05-06T00:07:46.400Z,11.41
2023-05-06T00:10:49.257Z,11.36
2023-05-06T00:13:51.897Z,11.37
2023-05-06T00:16:54.658Z,11.35
2023-05-06T00:19:58.690Z,11.30
2023-05-06T00:23:01.455Z,11.30
2023-05-06T00:26:04.095Z,11.26
2023-05-06T00:29:06.907Z,11.18
2023-05-06T00:32:09.557Z,11.07
2023-05-06T00:35:12.467Z,11.01
2023-05-06T00:38:19.522Z,10.99
2023-05-06T00:41:22.282Z,10.98
2023-05-06T00:44:25.310Z,11.03
2023-05-06T00:47:28.088Z,11.03
2023-05-06T00:50:32.579Z,10.98
2023-05-06T00:53:35.973Z,10.90
2023-05-06T00:56:38.478Z,10.91
2023-05-06T00:59:42.426Z,10.73
2023-05-06T01:02:47.822Z,10.80
2023-05-06T01:06:09.121Z,10.70
2023-05-06T01:09:15.007Z,10.71
2023-05-06T01:12:45.288Z,10.73
2023-05-06T01:15:51.700Z,10.86
2023-05-06T01:18:55.388Z,10.83
2023-05-06T01:22:01.329Z,10.79
2023-05-06T01:25:04.888Z,10.74
2023-05-06T01:28:10.487Z,10.67
2023-05-06T01:31:18.276Z,10.58
2023-05-06T01:34:34.688Z,10.54
2023-05-06T01:37:56.095Z,10.50
2023-05-06T01:40:59.986Z,10.51
2023-05-06T01:44:04.470Z,10.53
2023-05-06T01:47:08.979Z,10.52
2023-05-06T01:50:11.903Z,10.48
2023-05-06T01:53:14.613Z,10.41
2023-05-06T01:56:17.637Z,10.55
2023-05-06T01:59:20.357Z,10.69
2023-05-06T02:02:24.322Z,10.71
2023-05-06T02:05:27.269Z,10.75
2023-05-06T02:08:30.255Z,10.72
2023-05-06T02:11:33.557Z,10.65
2023-05-06T02:14:36.683Z,10.63
2023-05-06T02:17:40.069Z,10.66
2023-05-06T02:20:42.882Z,10.73
2023-05-06T02:23:50.739Z,10.80
2023-05-06T02:26:53.254Z,10.77
2023-05-06T02:29:56.015Z,10.74
2023-05-06T02:32:58.490Z,10.58
2023-05-06T02:36:01.301Z,10.52
2023-05-06T02:39:04.753Z,10.51
2023-05-06T02:42:07.795Z,10.56
2023-05-06T02:45:11.142Z,10.60
2023-05-06T02:48:14.125Z,10.65
2023-05-06T02:51:16.631Z,10.74
2023-05-06T02:54:19.525Z,10.78
2023-05-06T02:57:22.051Z,10.78
2023-05-06T03:00:24.886Z,10.73
2023-05-06T03:03:27.445Z,10.74
2023-05-06T03:06:31.546Z,10.81
2023-05-06T03:09:34.443Z,10.75
2023-05-06T03:12:37.419Z,10.96
2023-05-06T03:15:39.998Z,11.16
2023-05-06T03:18:43.046Z,11.20
2023-05-06T03:21:46.746Z,11.27
2023-05-06T03:24:50.790Z,11.36
2023-05-06T03:27:53.404Z,11.41
2023-05-06T03:30:56.612Z,11.39
2023-05-06T03:33:59.381Z,11.37
2023-05-06T03:37:02.579Z,11.34
2023-05-06T03:40:06.201Z,11.30
2023-05-06T03:43:09.391Z,11.33
2023-05-06T03:46:12.914Z,11.35
2023-05-06T03:49:15.778Z,11.31
2023-05-06T03:52:18.441Z,11.34
2023-05-06T03:55:21.448Z,11.35
2023-05-06T03:58:24.095Z,11.40
2023-05-06T04:01:27.258Z,11.53
2023-05-06T04:04:30.393Z,11.63
2023-05-06T04:07:33.025Z,11.68
2023-05-06T04:10:40.323Z,11.76
2023-05-06T04:13:44.063Z,11.77
2023-05-06T04:16:47.627Z,11.80
2023-05-06T04:19:50.142Z,11.79
2023-05-06T04:22:53.039Z,11.81
2023-05-06T04:25:58.010Z,11.71
2023-05-06T04:29:07.052Z,11.71
2023-05-06T04:32:11.733Z,11.72
2023-05-06T04:35:15.383Z,11.74
2023-05-06T04:38:18.430Z,11.77
2023-05-06T04:41:22.196Z,11.82
2023-05-06T04:44:25.187Z,11.91
2023-05-06T04:47:28.781Z,11.93
2023-05-06T04:50:32.293Z,11.95
2023-05-06T04:53:35.176Z,11.92
2023-05-06T04:56:38.214Z,11.84
2023-05-06T04:59:42.627Z,11.85
2023-05-06T05:02:45.744Z,11.83
2023-05-06T05:05:49.906Z,11.88
2023-05-06T05:08:55.312Z,11.92
2023-05-06T05:11:58.861Z,12.01
2023-05-06T05:15:02.060Z,12.08
2023-05-06T05:18:06.081Z,12.21
2023-05-06T05:21:08.921Z,12.38
2023-05-06T05:24:12.316Z,12.49
2023-05-06T05:27:15.016Z,12.70
2023-05-06T05:30:18.452Z,12.82
2023-05-06T05:33:21.653Z,12.85
2023-05-06T05:36:24.907Z,12.86
2023-05-06T05:39:28.400Z,12.89
2023-05-06T05:42:33.782Z,12.77
2023-05-06T05:45:38.093Z,12.73
2023-05-06T05:48:41.957Z,12.94
2023-05-06T05:51:46.241Z,13.06
2023-05-06T05:54:50.859Z,13.08
2023-05-06T05:57:53.895Z,13.15
2023-05-06T06:00:56.948Z,13.18
2023-05-06T06:04:00.701Z,13.32
2023-05-06T06:07:03.364Z,13.37
2023-05-06T06:10:07.221Z,13.37
2023-05-06T06:13:09.838Z,13.50
2023-05-06T06:16:12.954Z,13.58
2023-05-06T06:19:15.950Z,13.64
2023-05-06T06:22:19.059Z,13.72
2023-05-06T06:25:22.212Z,13.75
2023-05-06T06:28:25.098Z,13.70
2023-05-06T06:31:29.437Z,13.81
2023-05-06T06:34:32.418Z,13.93
2023-05-06T06:37:34.865Z,14.05
2023-05-06T06:40:37.628Z,14.06
2023-05-06T06:43:40.203Z,14.17
2023-05-06T06:46:43.187Z,14.20
2023-05-06T06:49:46.183Z,14.20
2023-05-06T06:52:49.204Z,14.20
2023-05-06T06:55:51.725Z,14.24
2023-05-06T06:58:54.691Z,14.20
2023-05-06T07:05:03.684Z,14.19
2023-05-06T07:08:07.050Z,14.33
2023-05-06T07:11:10.050Z,14.36
2023-05-06T07:14:13.597Z,14.40
2023-05-06T07:17:16.504Z,14.30
2023-05-06T07:20:19.157Z,14.18
2023-05-06T07:23:22.085Z,14.24
2023-05-06T07:26:24.913Z,14.27
2023-05-06T07:29:27.854Z,14.27
2023-05-06T07:32:30.895Z,14.20
2023-05-06T07:35:33.775Z,14.08
2023-05-06T07:38:36.372Z,14.06
2023-05-06T07:41:39.527Z,14.06
2023-05-06T07:44:42.225Z,13.96
2023-05-06T07:47:45.390Z,13.99
2023-05-06T07:50:47.989Z,13.97
2023-05-06T07:53:51.075Z,13.88
2023-05-06T07:56:53.627Z,13.82
2023-05-06T07:59:58.450Z,13.75
2023-05-06T08:03:01.349Z,13.75
2023-05-06T08:06:06.873Z,13.80
2023-05-06T08:09:14.794Z,13.85
2023-05-06T08:12:22.816Z,13.79
2023-05-06T08:15:25.385Z,13.69
2023-05-06T08:18:28.430Z,13.61
2023-05-06T08:21:31.258Z,13.55
2023-05-06T08:24:34.024Z,13.55
2023-05-06T08:27:36.599Z,13.55
2023-05-06T08:30:39.461Z,13.63
2023-05-06T08:33:41.988Z,13.65
2023-05-06T08:36:45.026Z,13.63
2023-05-06T08:39:47.853Z,13.71
2023-05-06T08:42:50.886Z,13.77
2023-05-06T08:45:54.788Z,13.77
2023-05-06T08:48:58.876Z,13.81
2023-05-06T08:52:04.727Z,13.96
2023-05-06T08:55:09.078Z,14.09
2023-05-06T08:58:15.792Z,14.25
2023-05-06T09:01:21.250Z,14.32
2023-05-06T09:04:23.925Z,14.38
2023-05-06T09:07:27.687Z,14.48
2023-05-06T09:10:42.435Z,14.65
2023-05-06T09:13:45.703Z,14.86
2023-05-06T09:16:50.574Z,15.10
2023-05-06T09:19:59.437Z,15.12
2023-05-06T09:23:02.691Z,15.19
2023-05-06T09:26:05.574Z,15.25
2023-05-06T09:29:08.658Z,15.49
2023-05-06T09:32:14.567Z,15.35
2023-05-06T09:35:17.104Z,15.64
2023-05-06T09:38:21.056Z,15.99
2023-05-06T09:41:25.672Z,16.04
2023-05-06T09:44:29.233Z,16.02
2023-05-06T09:47:35.746Z,16.48
2023-05-06T09:50:38.588Z,16.68
2023-05-06T09:53:41.652Z,16.59
2023-05-06T09:56:44.520Z,16.69
2023-05-06T09:59:48.214Z,16.67
2023-05-06T10:02:54.788Z,17.08
2023-05-06T10:06:02.044Z,17.09
2023-05-06T10:09:07.315Z,17.47
2023-05-06T10:12:10.548Z,17.78
2023-05-06T10:15:13.314Z,17.77
2023-05-06T10:18:17.773Z,18.04
2023-05-06T10:21:22.657Z,17.89
2023-05-06T10:24:31.698Z,18.24
2023-05-06T10:27:36.115Z,18.36
2023-05-06T10:30:40.347Z,18.31
2023-05-06T10:33:47.315Z,18.84
2023-05-06T10:36:57.635Z,18.98
2023-05-06T10:40:00.449Z,18.72
2023-05-06T10:43:23.294Z,18.56
2023-05-06T10:46:28.345Z,19.00
2023-05-06T10:49:31.108Z,19.73
2023-05-06T10:52:46.602Z,19.22
2023-05-06T10:56:07.256Z,20.81
2023-05-06T10:59:11.913Z,21.09
2023-05-06T11:02:18.773Z,21.72
2023-05-06T11:05:22.367Z,22.17
2023-05-06T11:08:26.500Z,21.93
2023-05-06T11:12:04.007Z,20.88
2023-05-06T11:15:26.887Z,20.60
2023-05-06T11:18:29.417Z,21.50
2023-05-06T11:21:32.576Z,22.40
2023-05-06T11:24:42.575Z,21.84
2023-05-06T11:27:45.526Z,21.80
2023-05-06T11:30:55.011Z,20.91
2023-05-06T11:33:59.815Z,21.40
2023-05-06T11:37:07.275Z,22.53
2023-05-06T11:40:16.362Z,21.99
2023-05-06T11:43:18.986Z,22.52
2023-05-06T11:46:23.641Z,22.60
2023-05-06T11:49:27.438Z,23.29
2023-05-06T11:52:30.711Z,23.94
2023-05-06T11:55:33.247Z,23.75
2023-05-06T11:58:36.598Z,24.18
2023-05-06T12:01:41.595Z,23.53
2023-05-06T12:04:46.528Z,23.73
2023-05-06T12:07:49.223Z,22.18
2023-05-06T12:10:52.901Z,23.14
2023-05-06T12:13:55.763Z,23.52
2023-05-06T12:16:58.579Z,23.29
2023-05-06T12:20:01.251Z,23.99
2023-05-06T12:23:15.464Z,23.30
2023-05-06T12:26:19.479Z,23.18
2023-05-06T12:29:22.375Z,23.75
2023-05-06T12:32:24.861Z,24.09
2023-05-06T12:35:29.342Z,23.94
2023-05-06T12:38:32.359Z,24.06
2023-05-06T12:41:37.660Z,23.95
2023-05-06T12:44:40.286Z,23.84
2023-05-06T12:47:57.097Z,23.64
2023-05-06T12:50:59.648Z,23.41
2023-05-06T12:54:04.875Z,22.95
2023-05-06T12:57:07.550Z,22.87
2023-05-06T13:00:11.170Z,22.72
2023-05-06T13:03:14.174Z,23.07
2023-05-06T13:06:17.045Z,23.83
2023-05-06T13:09:19.731Z,23.91
2023-05-06T13:12:22.634Z,23.96
2023-05-06T13:15:25.352Z,23.31
2023-05-06T13:18:29.514Z,23.08
2023-05-06T13:21:32.323Z,23.10
2023-05-06T13:24:35.104Z,23.18
2023-05-06T13:27:38.265Z,23.32
2023-05-06T13:30:41.389Z,23.18
2023-05-06T13:33:43.887Z,23.29
2023-05-06T13:36:49.341Z,23.59
2023-05-06T13:39:51.904Z,23.55
2023-05-06T13:42:56.316Z,23.53
2023-05-06T13:45:58.877Z,23.46
2023-05-06T13:49:01.711Z,23.06
2023-05-06T13:52:05.789Z,22.87
2023-05-06T13:55:11.179Z,22.54
2023-05-06T13:58:13.862Z,20.61
2023-05-06T14:01:16.803Z,18.18
2023-05-06T14:04:19.674Z,15.86
2023-05-06T14:07:22.132Z,15.59
2023-05-06T14:10:25.036Z,15.48
2023-05-06T14:13:27.718Z,15.59
2023-05-06T14:16:30.695Z,15.78
2023-05-06T14:19:33.224Z,15.93
2023-05-06T14:22:37.770Z,16.22
2023-05-06T14:25:40.323Z,16.39
2023-05-06T14:28:43.210Z,16.48
2023-05-06T14:31:45.892Z,16.55
2023-05-06T14:34:50.641Z,16.64
2023-05-06T14:37:53.983Z,16.66
2023-05-06T14:40:59.320Z,16.67
2023-05-06T14:44:02.116Z,16.74
2023-05-06T14:47:04.952Z,16.91
2023-05-06T14:50:11.767Z,16.91
2023-05-06T14:53:14.582Z,16.92
2023-05-06T14:56:17.242Z,16.93
2023-05-06T14:59:22.670Z,17.08
2023-05-06T15:02:25.640Z,17.45
2023-05-06T15:05:28.614Z,17.73
2023-05-06T15:08:31.525Z,17.93
2023-05-06T15:11:34.372Z,18.01
2023-05-06T15:14:38.342Z,18.04
2023-05-06T15:17:41.854Z,17.96
2023-05-06T15:20:44.456Z,17.93
2023-05-06T15:23:47.888Z,17.65
2023-05-06T15:26:50.394Z,17.65
2023-05-06T15:29:53.193Z,17.52
2023-05-06T15:32:55.848Z,17.50
2023-05-06T15:35:58.990Z,17.40
2023-05-06T15:39:01.901Z,17.26
2023-05-06T15:42:05.227Z,16.98
2023-05-06T15:45:08.174Z,16.91
2023-05-06T15:48:11.131Z,16.86
2023-05-06T15:51:13.732Z,16.77
2023-05-06T15:54:18.462Z,16.65
2023-05-06T15:57:20.954Z,16.67
2023-05-06T16:00:24.165Z,16.61
2023-05-06T16:03:27.090Z,16.62
2023-05-06T16:06:29.623Z,16.77
2023-05-06T16:09:32.434Z,16.90
2023-05-06T16:12:35.239Z,17.01
2023-05-06T16:15:39.663Z,17.02
2023-05-06T16:18:42.196Z,16.99
2023-05-06T16:21:45.394Z,16.95
2023-05-06T16:24:48.112Z,17.00
2023-05-06T16:27:51.025Z,16.91
2023-05-06T16:30:54.071Z,16.86
2023-05-06T16:33:57.091Z,16.85
2023-05-06T16:37:00.608Z,16.82
2023-05-06T16:40:04.822Z,16.79
2023-05-06T16:43:07.433Z,16.79
2023-05-06T16:46:11.822Z,16.80
2023-05-06T16:49:15.545Z,16.70
2023-05-06T16:52:18.967Z,16.62
2023-05-06T16:55:21.923Z,16.60
2023-05-06T16:58:24.717Z,16.51
2023-05-06T17:01:27.277Z,16.45
2023-05-06T17:04:30.136Z,16.38
2023-05-06T17:07:32.597Z,16.32
2023-05-06T17:10:35.529Z,16.27
2023-05-06T17:13:38.109Z,16.14
2023-05-06T17:16:43.145Z,16.09
2023-05-06T17:19:45.842Z,16.06
2023-05-06T17:22:49.259Z,15.97
2023-05-06T17:25:52.058Z,15.92
2023-05-06T17:28:54.852Z,15.87
2023-05-06T17:31:57.450Z,15.81
2023-05-06T17:35:01.152Z,15.76
2023-05-06T17:38:03.973Z,15.75
2023-05-06T17:41:06.755Z,15.72
2023-05-06T17:44:09.493Z,15.69
2023-05-06T17:47:12.746Z,15.75
2023-05-06T17:50:15.295Z,15.72
2023-05-06T17:53:18.121Z,15.75
2023-05-06T17:56:20.662Z,15.67
2023-05-06T17:59:25.283Z,15.57
2023-05-06T18:02:28.749Z,15.46
2023-05-06T18:05:31.592Z,15.32
2023-05-06T18:08:34.054Z,15.21
2023-05-06T18:11:38.222Z,15.06
2023-05-06T18:14:41.100Z,15.15
2023-05-06T18:17:43.988Z,15.04
2023-05-06T18:20:46.563Z,14.98
2023-05-06T18:23:51.442Z,15.07
2023-05-06T18:26:56.320Z,14.99
2023-05-06T18:29:59.430Z,15.07
2023-05-06T18:33:02.047Z,15.08
2023-05-06T18:36:05.285Z,15.05
2023-05-06T18:39:07.965Z,15.07
2023-05-06T18:42:11.419Z,15.22
2023-05-06T18:45:14.116Z,15.24
2023-05-06T18:48:16.896Z,15.17
2023-05-06T18:51:19.968Z,15.15
2023-05-06T18:54:23.912Z,15.12
2023-05-06T18:57:27.006Z,15.09
2023-05-06T19:00:30.582Z,15.13
2023-05-06T19:03:37.434Z,15.09
2023-05-06T19:06:40.362Z,15.10
2023-05-06T19:09:43.176Z,15.17
2023-05-06T19:12:46.043Z,15.12
2023-05-06T19:15:48.706Z,15.14
2023-05-06T19:18:51.735Z,15.16
2023-05-06T19:21:54.349Z,15.14
2023-05-06T19:24:57.126Z,15.13
2023-05-06T19:27:59.743Z,15.12
2023-05-06T19:31:08.587Z,15.10
2023-05-06T19:34:11.139Z,15.10
2023-05-06T19:37:13.986Z,15.09
2023-05-06T19:40:18.833Z,15.06
2023-05-06T19:43:23.039Z,15.07
2023-05-06T19:46:25.983Z,15.08
2023-05-06T19:49:30.452Z,15.06
2023-05-06T19:52:34.813Z,15.02
2023-05-06T19:55:37.828Z,15.02
2023-05-06T19:58:40.671Z,15.07
2023-05-06T20:01:44.293Z,15.05
2023-05-06T20:04:47.193Z,15.03
2023-05-06T20:07:50.672Z,14.95
2023-05-06T20:10:53.460Z,14.92
2023-05-06T20:13:56.157Z,14.86
2023-05-06T20:16:59.117Z,14.83
2023-05-06T20:20:09.243Z,14.84
2023-05-06T20:23:12.333Z,14.80
2023-05-06T20:26:14.832Z,14.76
2023-05-06T20:29:17.854Z,14.74
2023-05-06T20:32:20.658Z,14.73
2023-05-06T20:35:23.711Z,14.74
2023-05-06T20:38:27.397Z,14.70
2023-05-06T20:41:31.620Z,14.72
2023-05-06T20:44:34.884Z,14.68
2023-05-06T20:47:37.775Z,14.69
2023-05-06T20:50:40.328Z,14.71
2023-05-06T20:53:43.579Z,14.67
2023-05-06T20:56:46.111Z,14.65
2023-05-06T20:59:52.500Z,14.58
2023-05-06T21:02:55.275Z,14.57
2023-05-06T21:05:58.129Z,14.53
2023-05-06T21:09:01.178Z,14.51
2023-05-06T21:12:04.655Z,14.50
2023-05-06T21:15:07.797Z,14.43
2023-05-06T21:18:13.834Z,14.35
2023-05-06T21:21:16.692Z,14.36
2023-05-06T21:24:19.291Z,14.36
2023-05-06T21:27:22.034Z,14.40
2023-05-06T21:30:24.507Z,14.40
2023-05-06T21:33:27.410Z,14.43
2023-05-06T21:36:29.921Z,14.43
2023-05-06T21:39:32.771Z,14.42
2023-05-06T21:42:35.992Z,14.42
2023-05-06T21:45:38.904Z,14.42
2023-05-06T21:48:41.508Z,14.40
2023-05-06T21:51:44.379Z,14.44
2023-05-06T21:54:47.219Z,14.51
2023-05-06T21:57:50.814Z,14.53
2023-05-06T22:00:53.364Z,14.51
2023-05-06T22:03:56.360Z,14.52
2023-05-06T22:06:59.126Z,14.57
2023-05-06T22:10:01.916Z,14.55
2023-05-06T22:13:04.561Z,14.51
2023-05-06T22:16:07.843Z,14.49
2023-05-06T22:19:14.294Z,14.49
2023-05-06T22:22:17.164Z,14.55
2023-05-06T22:25:19.942Z,14.57
2023-05-06T22:28:22.686Z,14.53
2023-05-06T22:31:26.609Z,14.53
2023-05-06T22:34:29.520Z,14.51
2023-05-06T22:37:31.983Z,14.51
2023-05-06T22:40:34.778Z,14.49
2023-05-06T22:43:37.352Z,14.45
2023-05-06T22:46:40.129Z,14.40
2023-05-06T22:49:43.041Z,14.39
2023-05-06T22:52:45.834Z,14.32
2023-05-06T22:55:48.663Z,14.31
2023-05-06T22:58:51.711Z,14.30
2023-05-06T23:01:54.778Z,14.29
2023-05-06T23:04:59.347Z,14.26
2023-05-06T23:08:01.791Z,14.23
2023-05-06T23:11:05.044Z,14.21
2023-05-06T23:14:08.187Z,14.21
2023-05-06T23:17:11.169Z,14.20
2023-05-06T23:20:13.839Z,14.20
2023-05-06T23:23:16.805Z,14.17
2023-05-06T23:26:19.336Z,14.13
2023-05-06T23:29:23.083Z,14.09
2023-05-06T23:32:26.605Z,14.03
2023-05-06T23:35:29.410Z,14.00
2023-05-06T23:38:32.002Z,13.93
2023-05-06T23:41:34.803Z,13.90
2023-05-06T23:44:37.303Z,13.95
2023-05-06T23:47:40.911Z,13.99
2023-05-06T23:50:43.540Z,13.95
2023-05-06T23:53:46.477Z,14.01
2023-05-06T23:56:49.154Z,14.05
2023-05-06T23:59:51.983Z,14.02
